createdAt,value
2022-10-28T00:01:03.854Z,12.90
2022-10-28T00:03:31.892Z,12.90
2022-10-28T00:06:03.729Z,12.90
2022-10-28T00:08:31.779Z,12.90
2022-10-28T00:11:10.970Z,12.90
2022-10-28T00:13:39.078Z,12.90
2022-10-28T00:16:08.891Z,12.90
2022-10-28T00:18:37.045Z,12.90
2022-10-28T00:21:06.567Z,12.80
2022-10-28T00:23:34.615Z,12.80
2022-10-28T00:26:08.809Z,12.80
2022-10-28T00:28:36.895Z,12.80
2022-10-28T00:31:06.605Z,12.70
2022-10-28T00:33:34.624Z,12.70
2022-10-28T00:36:10.231Z,12.70
2022-10-28T00:38:38.281Z,12.70
2022-10-28T00:41:06.532Z,12.70
2022-10-28T00:43:40.077Z,12.60
2022-10-28T00:46:13.012Z,12.70
2022-10-28T00:48:41.686Z,12.60
2022-10-28T00:51:10.135Z,12.60
2022-10-28T00:53:38.170Z,12.60
2022-10-28T00:56:08.709Z,12.50
2022-10-28T00:58:38.109Z,12.50
2022-10-28T01:01:06.312Z,12.50
2022-10-28T01:03:34.362Z,12.40
2022-10-28T01:06:02.384Z,12.40
2022-10-28T01:08:30.410Z,12.40
2022-10-28T01:11:27.938Z,12.30
2022-10-28T01:14:18.575Z,12.30
2022-10-28T01:16:54.822Z,12.30
2022-10-28T01:19:45.015Z,12.30
2022-10-28T01:22:17.287Z,12.30
2022-10-28T01:25:16.648Z,12.30
2022-10-28T01:28:10.303Z,12.20
2022-10-28T01:30:55.288Z,12.20
2022-10-28T01:33:25.066Z,12.20
2022-10-28T01:35:54.003Z,12.20
2022-10-28T01:38:28.995Z,12.10
2022-10-28T01:40:59.734Z,12.10
2022-10-28T01:43:29.288Z,12.00
2022-10-28T01:46:00.712Z,12.00
2022-10-28T01:48:31.928Z,12.00
2022-10-28T01:51:02.574Z,12.00
2022-10-28T01:53:32.662Z,12.00
2022-10-28T01:56:05.908Z,12.00
2022-10-28T01:58:34.024Z,12.00
2022-10-28T02:01:03.582Z,11.90
2022-10-28T02:03:31.765Z,11.90
2022-10-28T02:06:00.149Z,11.90
2022-10-28T02:08:36.839Z,11.80
2022-10-28T02:11:21.797Z,11.80
2022-10-28T02:13:55.126Z,11.80
2022-10-28T02:16:28.258Z,11.80
2022-10-28T02:19:01.303Z,11.80
2022-10-28T02:21:39.639Z,11.80
2022-10-28T02:24:12.116Z,11.80
2022-10-28T02:26:40.971Z,11.70
2022-10-28T02:29:12.480Z,11.70
2022-10-28T02:31:44.144Z,11.70
2022-10-28T02:34:14.124Z,11.70
2022-10-28T02:36:43.027Z,11.70
2022-10-28T02:39:11.042Z,11.70
2022-10-28T02:41:41.644Z,11.60
2022-10-28T02:44:11.098Z,11.60
2022-10-28T02:46:41.308Z,11.60
2022-10-28T02:49:10.035Z,11.60
2022-10-28T02:51:39.264Z,11.60
2022-10-28T02:54:08.776Z,11.60
2022-10-28T02:56:38.315Z,11.50
2022-10-28T02:59:11.111Z,11.40
2022-10-28T03:01:39.280Z,11.30
2022-10-28T03:04:09.013Z,11.30
2022-10-28T03:06:37.026Z,11.30
2022-10-28T03:09:05.187Z,11.30
2022-10-28T03:11:33.211Z,11.30
2022-10-28T03:14:01.253Z,11.30
2022-10-28T03:16:29.258Z,11.20
2022-10-28T03:18:57.391Z,11.20
2022-10-28T03:21:26.844Z,11.10
2022-10-28T03:23:55.011Z,11.00
2022-10-28T03:26:23.075Z,11.00
2022-10-28T03:28:51.272Z,11.00
2022-10-28T03:31:19.324Z,11.00
2022-10-28T03:33:47.371Z,10.90
2022-10-28T03:36:15.391Z,10.90
2022-10-28T03:38:44.795Z,10.90
2022-10-28T03:41:12.814Z,10.80
2022-10-28T03:43:40.855Z,10.80
2022-10-28T03:46:08.871Z,10.80
2022-10-28T03:48:36.911Z,10.80
2022-10-28T03:51:05.078Z,10.80
2022-10-28T03:53:33.119Z,10.80
2022-10-28T03:56:02.850Z,10.70
2022-10-28T03:58:31.048Z,10.70
2022-10-28T04:00:59.123Z,10.70
2022-10-28T04:03:27.252Z,10.70
2022-10-28T04:05:55.358Z,10.70
2022-10-28T04:08:23.439Z,10.60
2022-10-28T04:10:51.451Z,10.70
2022-10-28T04:13:20.855Z,10.70
2022-10-28T04:15:48.870Z,10.70
2022-10-28T04:18:16.910Z,10.70
2022-10-28T04:20:45.893Z,10.70
2022-10-28T04:23:15.523Z,10.70
2022-10-28T04:25:43.539Z,10.70
2022-10-28T04:28:11.577Z,10.60
2022-10-28T04:30:40.948Z,10.60
2022-10-28T04:33:09.741Z,10.60
2022-10-28T04:35:39.250Z,10.50
2022-10-28T04:38:07.300Z,10.50
2022-10-28T04:40:35.333Z,10.40
2022-10-28T04:43:03.793Z,10.40
2022-10-28T04:45:33.711Z,10.30
2022-10-28T04:48:03.187Z,10.20
2022-10-28T04:50:31.200Z,10.20
2022-10-28T04:53:01.121Z,10.20
2022-10-28T04:55:29.143Z,10.10
2022-10-28T04:57:57.444Z,10.10
2022-10-28T05:00:25.600Z,10.20
2022-10-28T05:02:54.014Z,10.20
2022-10-28T05:05:23.682Z,10.20
2022-10-28T05:07:51.934Z,10.20
2022-10-28T05:10:20.202Z,10.30
2022-10-28T05:12:48.244Z,10.30
2022-10-28T05:15:16.702Z,10.30
2022-10-28T05:17:44.895Z,10.40
2022-10-28T05:20:13.111Z,10.50
2022-10-28T05:22:46.321Z,10.50
2022-10-28T05:25:14.436Z,10.50
2022-10-28T05:27:42.500Z,10.60
2022-10-28T05:30:11.575Z,10.60
2022-10-28T05:32:39.613Z,10.70
2022-10-28T05:35:08.551Z,10.70
2022-10-28T05:37:36.598Z,10.70
2022-10-28T05:40:06.659Z,10.70
2022-10-28T05:42:34.716Z,10.70
2022-10-28T05:45:02.737Z,10.80
2022-10-28T05:47:30.779Z,10.80
2022-10-28T05:49:58.795Z,10.80
2022-10-28T05:52:26.923Z,10.80
2022-10-28T05:54:54.943Z,10.90
2022-10-28T05:57:24.406Z,11.00
2022-10-28T05:59:52.418Z,11.10
2022-10-28T06:02:20.471Z,11.10
2022-10-28T06:04:48.490Z,11.20
2022-10-28T06:07:16.541Z,11.20
2022-10-28T06:09:44.574Z,11.20
2022-10-28T06:12:11.085Z,11.30
2022-10-28T06:14:40.458Z,11.30
2022-10-28T06:17:08.583Z,11.40
2022-10-28T06:19:36.613Z,11.40
2022-10-28T06:22:04.621Z,11.50
2022-10-28T06:24:32.659Z,11.50
2022-10-28T06:27:00.712Z,11.60
2022-10-28T06:29:30.652Z,11.70
2022-10-28T06:32:00.063Z,11.70
2022-10-28T06:34:28.097Z,11.80
2022-10-28T06:36:56.156Z,11.80
2022-10-28T06:39:24.194Z,11.90
2022-10-28T06:41:52.236Z,12.00
2022-10-28T06:44:20.257Z,12.00
2022-10-28T06:46:49.816Z,12.10
2022-10-28T06:49:19.193Z,12.10
2022-10-28T06:51:47.233Z,12.20
2022-10-28T06:54:15.250Z,12.20
2022-10-28T06:56:45.307Z,12.30
2022-10-28T06:59:13.436Z,12.30
2022-10-28T07:01:41.609Z,12.40
2022-10-28T07:04:10.628Z,12.50
2022-10-28T07:06:40.073Z,12.50
2022-10-28T07:09:08.261Z,12.60
2022-10-28T07:11:36.310Z,12.80
2022-10-28T07:14:04.333Z,12.90
2022-10-28T07:16:32.382Z,13.00
2022-10-28T07:19:00.396Z,13.10
2022-10-28T07:21:29.890Z,13.10
2022-10-28T07:23:59.265Z,13.20
2022-10-28T07:26:27.319Z,13.30
2022-10-28T07:28:55.352Z,13.40
2022-10-28T07:31:23.438Z,13.40
2022-10-28T07:33:54.969Z,13.40
2022-10-28T07:36:23.013Z,13.60
2022-10-28T07:38:51.731Z,13.50
2022-10-28T07:41:21.524Z,13.50
2022-10-28T07:43:49.616Z,13.60
2022-10-28T07:46:17.713Z,13.50
2022-10-28T07:48:45.759Z,13.60
2022-10-28T07:51:15.063Z,13.60
2022-10-28T07:53:43.206Z,13.70
2022-10-28T07:56:15.577Z,13.60
2022-10-28T07:58:45.103Z,13.70
2022-10-28T08:01:15.649Z,13.70
2022-10-28T08:03:43.796Z,13.70
2022-10-28T08:06:16.228Z,13.70
2022-10-28T08:08:44.301Z,13.70
2022-10-28T08:11:12.803Z,13.70
2022-10-28T08:13:40.863Z,13.70
2022-10-28T08:16:10.366Z,13.70
2022-10-28T08:18:38.755Z,13.80
2022-10-28T08:21:07.713Z,13.80
2022-10-28T08:23:35.770Z,13.90
2022-10-28T08:26:03.900Z,14.00
2022-10-28T08:28:31.938Z,14.00
2022-10-28T08:31:08.744Z,14.20
2022-10-28T08:33:39.090Z,14.30
2022-10-28T08:36:07.950Z,14.60
2022-10-28T08:38:36.020Z,15.10
2022-10-28T08:41:09.478Z,15.40
2022-10-28T08:43:56.780Z,15.50
2022-10-28T08:46:30.010Z,15.60
2022-10-28T08:49:01.370Z,15.70
2022-10-28T08:51:31.869Z,15.80
2022-10-28T08:54:01.194Z,15.90
2022-10-28T08:56:30.710Z,15.90
2022-10-28T08:59:00.377Z,16.00
2022-10-28T09:01:34.283Z,16.00
2022-10-28T09:04:03.738Z,16.00
2022-10-28T09:06:32.053Z,16.00
2022-10-28T09:09:00.078Z,16.10
2022-10-28T09:11:49.952Z,16.20
2022-10-28T09:14:25.333Z,16.30
2022-10-28T09:16:57.811Z,16.30
2022-10-28T09:19:33.777Z,16.40
2022-10-28T09:22:08.557Z,16.50
2022-10-28T09:24:42.678Z,16.50
2022-10-28T09:27:13.433Z,16.60
2022-10-28T09:29:44.534Z,16.60
2022-10-28T09:32:16.544Z,16.70
2022-10-28T09:34:47.590Z,17.10
2022-10-28T09:37:16.567Z,17.40
2022-10-28T09:39:45.086Z,17.70
2022-10-28T09:42:15.269Z,18.00
2022-10-28T09:44:45.668Z,18.30
2022-10-28T09:47:16.358Z,18.60
2022-10-28T09:49:44.379Z,18.70
2022-10-28T09:52:16.651Z,19.10
2022-10-28T09:54:46.779Z,19.30
2022-10-28T09:57:17.212Z,19.50
2022-10-28T09:59:45.760Z,19.80
2022-10-28T10:02:27.130Z,20.00
2022-10-28T10:04:55.936Z,20.20
2022-10-28T10:07:31.397Z,20.40
2022-10-28T10:10:00.230Z,20.60
2022-10-28T10:12:28.305Z,20.70
2022-10-28T10:14:57.602Z,21.00
2022-10-28T10:17:26.939Z,21.20
2022-10-28T10:19:59.299Z,21.30
2022-10-28T10:22:31.868Z,21.40
2022-10-28T10:25:00.092Z,21.50
2022-10-28T10:27:28.498Z,21.70
2022-10-28T10:29:56.560Z,21.60
2022-10-28T10:32:26.126Z,21.50
2022-10-28T10:35:01.606Z,21.50
2022-10-28T10:37:31.484Z,21.40
2022-10-28T10:40:21.908Z,21.50
2022-10-28T10:43:09.616Z,21.60
2022-10-28T10:45:38.335Z,21.50
2022-10-28T10:48:13.881Z,21.60
2022-10-28T10:50:42.082Z,21.90
2022-10-28T10:53:19.926Z,22.00
2022-10-28T10:55:51.195Z,21.90
2022-10-28T10:58:20.435Z,21.80
2022-10-28T11:00:49.133Z,21.70
2022-10-28T11:03:19.203Z,21.80
2022-10-28T11:06:05.448Z,21.80
2022-10-28T11:08:41.433Z,21.70
2022-10-28T11:11:14.364Z,21.50
2022-10-28T11:13:45.984Z,21.50
2022-10-28T11:16:21.690Z,21.40
2022-10-28T11:18:50.674Z,21.30
2022-10-28T11:21:33.079Z,21.30
2022-10-28T11:24:10.826Z,21.30
2022-10-28T11:26:42.339Z,21.70
2022-10-28T11:29:11.038Z,21.90
2022-10-28T11:32:00.510Z,22.10
2022-10-28T11:34:36.888Z,22.10
2022-10-28T11:37:09.768Z,22.20
2022-10-28T11:39:42.631Z,22.20
2022-10-28T11:42:17.547Z,22.30
2022-10-28T11:44:47.211Z,22.40
2022-10-28T11:47:27.971Z,22.50
2022-10-28T11:50:13.902Z,22.50
2022-10-28T11:52:51.115Z,22.60
2022-10-28T11:55:23.761Z,22.60
2022-10-28T11:57:58.174Z,22.60
2022-10-28T12:00:42.149Z,22.60
2022-10-28T12:03:41.958Z,22.70
2022-10-28T12:06:13.633Z,22.70
2022-10-28T12:08:48.838Z,22.70
2022-10-28T12:11:24.273Z,22.70
2022-10-28T12:13:54.621Z,22.80
2022-10-28T12:16:26.078Z,22.70
2022-10-28T12:18:55.842Z,22.80
2022-10-28T12:21:27.978Z,22.70
2022-10-28T12:23:56.075Z,22.80
2022-10-28T12:26:29.743Z,22.80
2022-10-28T12:28:58.902Z,22.70
2022-10-28T12:31:27.677Z,22.80
2022-10-28T12:33:57.510Z,22.90
2022-10-28T12:36:32.111Z,22.90
2022-10-28T12:39:02.232Z,23.00
2022-10-28T12:41:44.685Z,22.90
2022-10-28T12:44:13.750Z,23.00
2022-10-28T12:49:19.280Z,23.10
2022-10-28T12:51:47.337Z,23.10
2022-10-28T12:54:19.598Z,23.10
2022-10-28T12:56:52.864Z,23.10
2022-10-28T12:59:24.171Z,22.90
2022-10-28T13:01:52.332Z,23.00
2022-10-28T13:04:20.528Z,23.00
2022-10-28T13:07:17.786Z,23.00
2022-10-28T13:09:49.869Z,23.00
2022-10-28T13:12:53.376Z,23.00
2022-10-28T13:15:39.078Z,23.00
2022-10-28T13:18:31.368Z,22.90
2022-10-28T13:21:04.466Z,22.80
2022-10-28T13:23:34.158Z,22.90
2022-10-28T13:26:09.150Z,22.90
2022-10-28T13:28:47.513Z,22.70
2022-10-28T13:31:15.800Z,22.60
2022-10-28T13:33:49.576Z,22.50
2022-10-28T13:36:18.951Z,22.50
2022-10-28T13:38:56.924Z,22.40
2022-10-28T13:41:30.271Z,22.20
2022-10-28T13:44:01.394Z,22.10
2022-10-28T13:47:01.184Z,22.10
2022-10-28T13:49:29.649Z,22.10
2022-10-28T13:52:02.004Z,21.90
2022-10-28T13:54:32.616Z,21.90
2022-10-28T13:57:05.986Z,21.80
2022-10-28T13:59:51.934Z,21.70
2022-10-28T14:02:40.454Z,21.70
2022-10-28T14:05:09.715Z,21.60
2022-10-28T14:07:38.316Z,21.60
2022-10-28T14:10:21.609Z,21.50
2022-10-28T14:12:51.330Z,21.40
2022-10-28T14:15:26.516Z,21.40
2022-10-28T14:18:04.904Z,21.30
2022-10-28T14:20:47.330Z,21.20
2022-10-28T14:23:57.687Z,21.20
2022-10-28T14:26:25.738Z,21.10
2022-10-28T14:28:54.608Z,21.10
2022-10-28T14:31:44.990Z,21.00
2022-10-28T14:34:37.800Z,21.00
2022-10-28T14:37:34.224Z,20.90
2022-10-28T14:40:18.359Z,20.80
2022-10-28T14:42:58.026Z,20.80
2022-10-28T14:45:31.957Z,20.70
2022-10-28T14:48:30.922Z,20.60
2022-10-28T14:50:58.974Z,20.50
2022-10-28T14:53:30.065Z,20.50
2022-10-28T14:56:00.518Z,20.40
2022-10-28T14:58:30.966Z,20.40
2022-10-28T15:01:05.764Z,20.30
2022-10-28T15:03:35.154Z,20.20
2022-10-28T15:06:03.733Z,20.20
2022-10-28T15:08:31.756Z,20.00
2022-10-28T15:10:59.837Z,19.90
2022-10-28T15:13:27.909Z,19.80
2022-10-28T15:15:59.319Z,19.80
2022-10-28T15:18:30.239Z,19.70
2022-10-28T15:21:12.862Z,19.60
2022-10-28T15:23:41.128Z,19.50
2022-10-28T15:26:10.639Z,19.40
2022-10-28T15:28:38.717Z,19.30
2022-10-28T15:31:06.977Z,19.20
2022-10-28T15:33:38.609Z,19.10
2022-10-28T15:36:18.036Z,19.00
2022-10-28T15:38:46.560Z,18.90
2022-10-28T15:41:41.325Z,18.80
2022-10-28T15:44:23.569Z,18.70
2022-10-28T15:46:51.652Z,18.70
2022-10-28T15:49:32.807Z,18.50
2022-10-28T15:52:36.048Z,18.50
2022-10-28T15:55:10.268Z,18.40
2022-10-28T15:57:48.221Z,18.30
2022-10-28T16:00:21.390Z,18.20
2022-10-28T16:02:53.659Z,18.10
2022-10-28T16:05:56.320Z,18.00
2022-10-28T16:08:30.527Z,17.90
2022-10-28T16:11:03.280Z,17.80
2022-10-28T16:13:33.684Z,17.70
2022-10-28T16:16:04.339Z,17.60
2022-10-28T16:18:33.565Z,17.60
2022-10-28T16:21:01.847Z,17.50
2022-10-28T16:23:35.126Z,17.50
2022-10-28T16:26:03.264Z,17.40
2022-10-28T16:28:32.583Z,17.30
2022-10-28T16:31:01.373Z,17.20
2022-10-28T16:33:31.144Z,17.20
2022-10-28T16:35:59.210Z,17.10
2022-10-28T16:38:27.275Z,17.00
2022-10-28T16:40:56.673Z,17.00
2022-10-28T16:43:25.718Z,16.90
2022-10-28T16:45:54.232Z,16.80
2022-10-28T16:48:24.145Z,16.80
2022-10-28T16:50:52.743Z,16.70
2022-10-28T16:53:20.811Z,16.70
2022-10-28T16:55:48.889Z,16.60
2022-10-28T16:58:23.065Z,16.50
2022-10-28T17:00:52.778Z,16.50
2022-10-28T17:03:20.843Z,16.40
2022-10-28T17:05:48.971Z,16.30
2022-10-28T17:08:26.307Z,16.30
2022-10-28T17:11:04.800Z,16.30
2022-10-28T17:13:34.877Z,16.20
2022-10-28T17:16:02.921Z,16.10
2022-10-28T17:18:30.933Z,16.10
2022-10-28T17:21:01.994Z,16.00
2022-10-28T17:23:30.133Z,15.90
2022-10-28T17:25:59.017Z,15.90
2022-10-28T17:28:27.048Z,15.90
2022-10-28T17:31:03.401Z,15.90
2022-10-28T17:33:31.423Z,15.80
2022-10-28T17:36:02.099Z,15.80
2022-10-28T17:38:30.614Z,15.80
2022-10-28T17:40:58.751Z,15.80
2022-10-28T17:43:26.789Z,15.70
2022-10-28T17:46:04.795Z,15.70
2022-10-28T17:48:32.814Z,15.60
2022-10-28T17:51:00.858Z,15.60
2022-10-28T17:53:28.881Z,15.70
2022-10-28T17:55:57.862Z,15.60
2022-10-28T17:58:26.119Z,15.50
2022-10-28T18:00:58.210Z,15.50
2022-10-28T18:03:31.556Z,15.50
2022-10-28T18:06:03.228Z,15.50
2022-10-28T18:08:33.667Z,15.50
2022-10-28T18:11:01.712Z,15.40
2022-10-28T18:13:30.041Z,15.40
2022-10-28T18:15:58.091Z,15.30
2022-10-28T18:18:27.998Z,15.40
2022-10-28T18:20:56.506Z,15.30
2022-10-28T18:23:24.600Z,15.30
2022-10-28T18:25:59.199Z,15.30
2022-10-28T18:28:27.247Z,15.20
2022-10-28T18:30:55.286Z,15.20
2022-10-28T18:33:23.301Z,15.20
2022-10-28T18:35:52.703Z,15.20
2022-10-28T18:38:21.005Z,15.10
2022-10-28T18:40:49.055Z,15.20
2022-10-28T18:43:17.073Z,15.20
2022-10-28T18:45:45.134Z,15.10
2022-10-28T18:48:13.151Z,15.10
2022-10-28T18:50:43.485Z,15.00
2022-10-28T18:53:15.079Z,15.00
2022-10-28T18:55:43.120Z,14.90
2022-10-28T18:58:14.368Z,14.80
2022-10-28T19:00:42.440Z,14.80
2022-10-28T19:03:11.766Z,14.80
2022-10-28T19:05:39.822Z,14.80
2022-10-28T19:08:07.843Z,14.80
2022-10-28T19:10:37.281Z,14.80
2022-10-28T19:13:05.317Z,14.80
2022-10-28T19:15:33.357Z,14.80
2022-10-28T19:18:01.377Z,14.80
2022-10-28T19:20:29.585Z,14.80
2022-10-28T19:22:57.960Z,14.80
2022-10-28T19:25:26.455Z,14.80
2022-10-28T19:27:55.835Z,14.70
2022-10-28T19:30:23.887Z,14.80
2022-10-28T19:32:52.103Z,14.70
2022-10-28T19:35:20.261Z,14.70
2022-10-28T19:37:48.275Z,14.70
2022-10-28T19:40:16.468Z,14.60
2022-10-28T19:42:44.546Z,14.60
2022-10-28T19:45:13.990Z,14.50
2022-10-28T19:47:42.023Z,14.60
2022-10-28T19:50:10.864Z,14.60
2022-10-28T19:52:38.878Z,14.60
2022-10-28T19:55:08.820Z,14.60
2022-10-28T19:57:40.375Z,14.60
2022-10-28T20:00:10.257Z,14.50
2022-10-28T20:02:42.220Z,14.50
2022-10-28T20:05:10.531Z,14.50
2022-10-28T20:07:38.528Z,14.50
2022-10-28T20:10:07.328Z,14.50
2022-10-28T20:12:35.329Z,14.40
2022-10-28T20:15:03.344Z,14.50
2022-10-28T20:17:31.339Z,14.40
2022-10-28T20:20:00.712Z,14.40
2022-10-28T20:22:28.710Z,14.50
2022-10-28T20:24:56.725Z,14.50
2022-10-28T20:27:24.813Z,14.50
2022-10-28T20:29:52.810Z,14.40
2022-10-28T20:32:22.411Z,14.40
2022-10-28T20:34:50.462Z,14.50
2022-10-28T20:37:19.805Z,14.40
2022-10-28T20:39:48.083Z,14.50
2022-10-28T20:42:16.186Z,14.40
2022-10-28T20:44:44.210Z,14.50
2022-10-28T20:47:12.211Z,14.50
2022-10-28T20:49:42.740Z,14.40
2022-10-28T20:52:12.809Z,14.40
2022-10-28T20:54:42.168Z,14.50
2022-10-28T20:57:10.185Z,14.50
2022-10-28T20:59:38.183Z,14.40
2022-10-28T21:02:06.278Z,14.40
2022-10-28T21:04:34.383Z,14.50
2022-10-28T21:07:02.406Z,14.40
2022-10-28T21:09:30.405Z,14.40
2022-10-28T21:11:59.836Z,14.40
2022-10-28T21:14:27.827Z,14.50
2022-10-28T21:16:58.335Z,14.50
2022-10-28T21:19:26.339Z,14.50
2022-10-28T21:21:54.389Z,14.50
2022-10-28T21:24:22.424Z,14.60
2022-10-28T21:26:52.144Z,14.60
2022-10-28T21:29:21.669Z,14.50
2022-10-28T21:31:50.355Z,14.60
2022-10-28T21:34:18.558Z,14.60
2022-10-28T21:36:46.620Z,14.60
2022-10-28T21:39:14.618Z,14.60
2022-10-28T21:41:42.632Z,14.70
2022-10-28T21:44:11.033Z,14.70
2022-10-28T21:46:40.418Z,14.70
2022-10-28T21:49:08.423Z,14.70
2022-10-28T21:51:36.433Z,14.70
2022-10-28T21:54:04.489Z,14.70
2022-10-28T21:56:32.531Z,14.70
2022-10-28T21:59:01.812Z,14.70
2022-10-28T22:01:30.019Z,14.70
2022-10-28T22:03:59.393Z,14.70
2022-10-28T22:06:27.507Z,14.70
2022-10-28T22:08:55.637Z,14.70
2022-10-28T22:11:24.324Z,14.70
2022-10-28T22:13:56.838Z,14.70
2022-10-28T22:16:24.881Z,14.60
2022-10-28T22:18:52.883Z,14.60
2022-10-28T22:21:23.272Z,14.60
2022-10-28T22:23:51.403Z,14.60
2022-10-28T22:26:20.195Z,14.60
2022-10-28T22:28:48.387Z,14.70
2022-10-28T22:31:18.042Z,14.70
2022-10-28T22:36:16.107Z,14.70
2022-10-28T22:38:45.458Z,14.70
2022-10-28T22:41:14.440Z,14.70
2022-10-28T22:43:42.813Z,14.70
2022-10-28T22:46:10.906Z,14.60
2022-10-28T22:48:38.961Z,14.60
2022-10-28T22:51:07.218Z,14.60
2022-10-28T22:53:35.209Z,14.60
2022-10-28T22:56:04.677Z,14.50
2022-10-28T22:58:32.821Z,14.50
2022-10-28T23:01:07.952Z,14.40
2022-10-28T23:03:37.097Z,14.40
2022-10-28T23:06:05.226Z,14.40
2022-10-28T23:08:33.220Z,14.30
2022-10-28T23:11:01.274Z,14.40
2022-10-28T23:13:30.663Z,14.40
2022-10-28T23:15:58.734Z,14.40
2022-10-28T23:18:28.009Z,14.40
2022-10-28T23:20:56.030Z,14.30
2022-10-28T23:23:24.052Z,14.20
2022-10-28T23:25:55.319Z,14.20
2022-10-28T23:28:23.303Z,14.20
2022-10-28T23:30:52.691Z,14.20
2022-10-28T23:33:20.685Z,14.20
2022-10-28T23:35:55.082Z,14.20
2022-10-28T23:38:23.163Z,14.20
2022-10-28T23:40:58.380Z,14.20
2022-10-28T23:43:26.455Z,14.20
2022-10-28T23:45:55.876Z,14.20
2022-10-28T23:48:24.390Z,14.20
2022-10-28T23:50:52.581Z,14.20
2022-10-28T23:53:20.807Z,14.20
2022-10-28T23:55:49.506Z,14.30
2022-10-28T23:58:18.166Z,14.30
